createdAt,value
2018-09-15T00:01:11.277Z,11.45
2018-09-15T00:03:38.804Z,10.10
2018-09-15T00:06:06.303Z,7.83
2018-09-15T00:08:33.796Z,9.93
2018-09-15T00:11:01.239Z,10.70
2018-09-15T00:13:29.004Z,10.98
2018-09-15T00:15:56.521Z,12.43
2018-09-15T00:18:24.023Z,7.62
2018-09-15T00:20:51.735Z,11.45
2018-09-15T00:23:19.194Z,11.38
2018-09-15T00:25:46.607Z,9.08
2018-09-15T00:28:14.327Z,8.50
2018-09-15T00:30:42.427Z,7.20
2018-09-15T00:33:10.192Z,12.03
2018-09-15T00:35:37.663Z,12.90
2018-09-15T00:38:05.575Z,13.40
2018-09-15T00:40:33.387Z,12.43
2018-09-15T00:43:00.920Z,8.55
2018-09-15T00:45:28.609Z,14.43
2018-09-15T00:47:56.187Z,11.28
2018-09-15T00:50:24.135Z,11.18
2018-09-15T00:52:51.669Z,10.50
2018-09-15T00:55:19.751Z,7.65
2018-09-15T00:57:47.596Z,9.73
2018-09-15T01:00:15.073Z,10.35
2018-09-15T01:02:42.863Z,9.80
2018-09-15T01:05:10.889Z,9.43
2018-09-15T01:07:38.552Z,10.00
2018-09-15T01:10:06.144Z,12.97
2018-09-15T01:12:34.160Z,11.78
2018-09-15T01:15:02.058Z,14.33
2018-09-15T01:17:29.825Z,10.50
2018-09-15T01:19:58.018Z,11.88
2018-09-15T01:22:25.488Z,11.80
2018-09-15T01:24:53.039Z,11.05
2018-09-15T01:27:20.611Z,10.58
2018-09-15T01:29:48.114Z,12.03
2018-09-15T01:32:15.591Z,11.85
2018-09-15T01:34:43.058Z,12.47
2018-09-15T01:37:10.516Z,14.30
2018-09-15T01:39:38.013Z,14.93
2018-09-15T01:42:05.439Z,14.25
2018-09-15T01:44:32.920Z,13.60
2018-09-15T01:47:00.500Z,15.00
2018-09-15T01:49:28.085Z,13.55
2018-09-15T01:51:55.691Z,12.93
2018-09-15T01:54:23.231Z,13.05
2018-09-15T01:56:51.293Z,15.35
2018-09-15T01:59:19.000Z,11.38
2018-09-15T02:01:46.544Z,14.25
2018-09-15T02:04:14.332Z,13.03
2018-09-15T02:06:42.189Z,13.70
2018-09-15T02:09:12.399Z,16.12
2018-09-15T02:11:40.136Z,12.15
2018-09-15T02:14:08.209Z,14.65
2018-09-15T02:16:35.801Z,12.33
2018-09-15T02:19:03.596Z,11.65
2018-09-15T02:21:31.383Z,13.00
2018-09-15T02:23:59.160Z,13.95
2018-09-15T02:26:26.956Z,13.60
2018-09-15T02:28:55.017Z,13.20
2018-09-15T02:31:22.535Z,13.78
2018-09-15T02:33:50.044Z,10.65
2018-09-15T02:36:17.620Z,13.90
2018-09-15T02:38:45.616Z,14.75
2018-09-15T02:41:13.344Z,14.68
2018-09-15T02:43:41.168Z,12.10
2018-09-15T02:46:09.324Z,14.23
2018-09-15T02:48:36.808Z,13.08
2018-09-15T02:51:04.267Z,11.75
2018-09-15T02:53:32.094Z,13.60
2018-09-15T02:55:59.905Z,12.18
2018-09-15T02:58:27.537Z,12.58
2018-09-15T03:00:54.988Z,14.07
2018-09-15T03:03:22.639Z,15.60
2018-09-15T03:05:50.452Z,13.13
2018-09-15T03:08:18.211Z,14.10
2018-09-15T03:10:45.763Z,16.30
2018-09-15T03:13:13.555Z,16.60
2018-09-15T03:15:41.027Z,15.63
2018-09-15T03:18:08.720Z,14.95
2018-09-15T03:20:36.241Z,14.07
2018-09-15T03:23:03.813Z,13.48
2018-09-15T03:25:31.251Z,15.15
2018-09-15T03:27:58.800Z,16.30
2018-09-15T03:30:26.242Z,16.05
2018-09-15T03:32:54.053Z,16.67
2018-09-15T03:35:22.148Z,15.80
2018-09-15T03:37:49.691Z,13.18
2018-09-15T03:40:17.523Z,14.90
2018-09-15T03:42:45.021Z,13.37
2018-09-15T03:45:12.564Z,13.30
2018-09-15T03:47:40.364Z,13.70
2018-09-15T03:50:07.911Z,16.35
2018-09-15T03:52:35.632Z,17.07
2018-09-15T03:55:03.493Z,15.08
2018-09-15T03:57:30.980Z,14.87
2018-09-15T03:59:58.779Z,12.60
2018-09-15T04:02:26.309Z,16.65
2018-09-15T04:04:53.913Z,15.98
2018-09-15T04:07:21.387Z,12.63
2018-09-15T04:09:49.160Z,12.80
2018-09-15T04:12:16.605Z,12.75
2018-09-15T04:14:44.174Z,11.00
2018-09-15T04:17:11.634Z,16.55
2018-09-15T04:19:39.662Z,13.60
2018-09-15T04:22:07.324Z,14.47
2018-09-15T04:24:34.761Z,12.85
2018-09-15T04:27:02.528Z,12.97
2018-09-15T04:29:30.006Z,14.47
2018-09-15T04:31:57.545Z,14.60
2018-09-15T04:34:25.060Z,13.55
2018-09-15T04:36:52.712Z,12.60
2018-09-15T04:39:20.192Z,15.50
2018-09-15T04:41:47.731Z,15.75
2018-09-15T04:44:15.188Z,11.83
2018-09-15T04:46:42.684Z,11.45
2018-09-15T04:49:10.161Z,15.03
2018-09-15T04:51:37.993Z,14.25
2018-09-15T04:54:05.634Z,15.25
2018-09-15T04:56:33.376Z,14.30
2018-09-15T04:59:00.901Z,13.90
2018-09-15T05:01:28.405Z,11.90
2018-09-15T05:03:55.981Z,14.90
2018-09-15T05:06:23.485Z,12.70
2018-09-15T05:08:51.016Z,12.25
2018-09-15T05:11:18.535Z,11.25
2018-09-15T05:13:46.061Z,14.75
2018-09-15T05:16:13.833Z,15.32
2018-09-15T05:18:41.356Z,12.73
2018-09-15T05:21:08.922Z,17.02
2018-09-15T05:23:36.639Z,13.00
2018-09-15T05:26:04.193Z,14.87
2018-09-15T05:28:31.954Z,13.88
2018-09-15T05:30:59.769Z,16.40
2018-09-15T05:33:27.256Z,14.00
2018-09-15T05:35:55.100Z,13.07
2018-09-15T05:38:22.607Z,12.13
2018-09-15T05:40:50.149Z,12.45
2018-09-15T05:43:17.777Z,16.97
2018-09-15T05:45:45.542Z,13.45
2018-09-15T05:48:13.089Z,13.75
2018-09-15T05:50:40.517Z,13.10
2018-09-15T05:53:08.220Z,14.60
2018-09-15T05:55:36.094Z,11.28
2018-09-15T05:58:03.579Z,11.90
2018-09-15T06:00:31.377Z,11.93
2018-09-15T06:02:59.792Z,14.07
2018-09-15T06:05:27.489Z,11.55
2018-09-15T06:07:55.319Z,11.57
2018-09-15T06:10:23.124Z,14.45
2018-09-15T06:12:51.165Z,16.32
2018-09-15T06:15:18.672Z,15.03
2018-09-15T06:17:46.508Z,11.55
2018-09-15T06:20:13.957Z,10.23
2018-09-15T06:22:41.400Z,12.83
2018-09-15T06:25:08.942Z,10.43
2018-09-15T06:27:36.459Z,10.85
2018-09-15T06:30:04.313Z,9.85
2018-09-15T06:32:31.785Z,10.40
2018-09-15T06:34:59.440Z,11.90
2018-09-15T06:37:26.944Z,14.50
2018-09-15T06:39:54.443Z,13.95
2018-09-15T06:42:22.009Z,11.15
2018-09-15T06:44:49.768Z,15.30
2018-09-15T06:47:17.243Z,15.55
2018-09-15T06:49:45.083Z,11.18
2018-09-15T06:52:12.548Z,9.83
2018-09-15T06:54:40.298Z,10.18
2018-09-15T06:57:07.784Z,12.00
2018-09-15T06:59:35.522Z,14.03
2018-09-15T07:02:03.392Z,10.30
2018-09-15T07:04:30.831Z,9.75
2018-09-15T07:06:58.635Z,15.17
2018-09-15T07:09:26.233Z,12.13
2018-09-15T07:11:53.741Z,8.38
2018-09-15T07:14:21.234Z,7.72
2018-09-15T07:16:49.148Z,8.90
2018-09-15T07:19:16.663Z,9.88
2018-09-15T07:21:44.586Z,8.58
2018-09-15T07:24:12.122Z,10.60
2018-09-15T07:26:40.045Z,13.90
2018-09-15T07:29:07.580Z,12.05
2018-09-15T07:31:35.630Z,10.82
2018-09-15T07:34:03.052Z,12.35
2018-09-15T07:36:30.885Z,10.72
2018-09-15T07:38:58.431Z,10.03
2018-09-15T07:41:26.265Z,11.40
2018-09-15T07:43:53.726Z,11.48
2018-09-15T07:46:21.401Z,9.10
2018-09-15T07:48:49.479Z,8.45
2018-09-15T07:51:16.895Z,11.95
2018-09-15T07:53:44.372Z,8.75
2018-09-15T07:56:11.803Z,9.23
2018-09-15T07:58:39.468Z,9.68
2018-09-15T08:01:07.097Z,8.60
2018-09-15T08:03:34.620Z,10.00
2018-09-15T08:06:02.076Z,9.50
2018-09-15T08:08:29.592Z,9.45
2018-09-15T08:10:57.207Z,9.90
2018-09-15T08:13:24.719Z,9.87
2018-09-15T08:15:52.499Z,7.63
2018-09-15T08:18:21.283Z,8.80
2018-09-15T08:20:49.152Z,9.15
2018-09-15T08:23:16.740Z,7.00
2018-09-15T08:25:44.413Z,11.10
2018-09-15T08:28:12.580Z,10.70
2018-09-15T08:30:40.327Z,9.48
2018-09-15T08:33:08.057Z,6.57
2018-09-15T08:35:36.241Z,8.90
2018-09-15T08:38:04.350Z,9.85
2018-09-15T08:40:31.759Z,9.70
2018-09-15T08:42:59.909Z,7.80
2018-09-15T08:45:27.865Z,9.95
2018-09-15T08:47:55.789Z,8.90
2018-09-15T08:50:23.338Z,6.45
2018-09-15T08:52:51.563Z,6.22
2018-09-15T08:55:19.412Z,6.78
2018-09-15T08:57:47.057Z,8.18
2018-09-15T09:00:15.041Z,9.20
2018-09-15T09:02:43.492Z,6.50
2018-09-15T09:05:11.050Z,11.43
2018-09-15T09:07:38.775Z,6.45
2018-09-15T09:10:06.296Z,6.15
2018-09-15T09:12:33.861Z,6.33
2018-09-15T09:15:01.930Z,5.40
2018-09-15T09:17:29.583Z,8.38
2018-09-15T09:19:57.626Z,8.18
2018-09-15T09:22:25.301Z,7.47
2018-09-15T09:24:52.867Z,4.97
2018-09-15T09:27:20.355Z,7.12
2018-09-15T09:29:48.527Z,7.15
2018-09-15T09:32:16.298Z,8.18
2018-09-15T09:34:44.020Z,14.73
2018-09-15T09:37:12.233Z,5.03
2018-09-15T09:39:40.139Z,3.75
2018-09-15T09:42:08.439Z,5.22
2018-09-15T09:44:35.923Z,4.12
2018-09-15T09:47:03.825Z,6.00
2018-09-15T09:49:31.759Z,4.50
2018-09-15T09:51:59.333Z,4.90
2018-09-15T09:54:27.264Z,5.35
2018-09-15T09:56:55.041Z,4.62
2018-09-15T09:59:22.720Z,7.20
2018-09-15T10:01:55.316Z,5.80
2018-09-15T10:04:23.401Z,4.00
2018-09-15T10:06:52.738Z,4.10
2018-09-15T10:09:20.988Z,9.10
2018-09-15T10:11:48.673Z,3.55
2018-09-15T10:14:16.467Z,3.42
2018-09-15T10:16:44.003Z,6.20
2018-09-15T10:19:11.805Z,4.40
2018-09-15T10:21:39.512Z,5.28
2018-09-15T10:24:07.373Z,5.67
2018-09-15T10:26:35.856Z,5.37
2018-09-15T10:29:03.728Z,5.97
2018-09-15T10:31:31.175Z,5.67
2018-09-15T10:33:59.365Z,5.73
2018-09-15T10:36:26.825Z,5.33
2018-09-15T10:38:54.467Z,5.60
2018-09-15T10:41:21.952Z,7.70
2018-09-15T10:43:49.429Z,10.23
2018-09-15T10:46:17.570Z,4.83
2018-09-15T10:48:45.026Z,5.58
2018-09-15T10:51:12.493Z,6.12
2018-09-15T10:53:40.596Z,6.60
2018-09-15T10:56:08.547Z,3.80
2018-09-15T10:58:36.491Z,6.33
2018-09-15T11:01:04.107Z,11.87
2018-09-15T11:03:31.685Z,19.80
2018-09-15T11:05:59.825Z,14.30
2018-09-15T11:08:27.975Z,12.15
2018-09-15T11:10:55.659Z,14.03
2018-09-15T11:13:23.717Z,9.73
2018-09-15T11:15:53.452Z,8.83
2018-09-15T11:18:21.376Z,7.15
2018-09-15T11:20:49.023Z,9.33
2018-09-15T11:23:16.636Z,6.30
2018-09-15T11:25:44.368Z,6.45
2018-09-15T11:28:11.960Z,6.10
2018-09-15T11:30:40.212Z,5.22
2018-09-15T11:33:07.921Z,4.90
2018-09-15T11:35:35.920Z,4.03
2018-09-15T11:38:03.611Z,5.97
2018-09-15T11:40:31.832Z,4.05
2018-09-15T11:43:00.184Z,5.53
2018-09-15T11:45:29.077Z,6.55
2018-09-15T11:47:56.673Z,7.28
2018-09-15T11:50:24.236Z,4.95
2018-09-15T11:52:52.738Z,5.87
2018-09-15T11:55:20.630Z,5.67
2018-09-15T11:57:48.791Z,6.77
2018-09-15T12:00:20.441Z,8.40
2018-09-15T12:02:49.236Z,5.15
2018-09-15T12:05:16.912Z,9.10
2018-09-15T12:07:44.798Z,8.25
2018-09-15T12:10:12.633Z,8.10
2018-09-15T12:12:40.401Z,4.60
2018-09-15T12:15:07.924Z,7.50
2018-09-15T12:17:35.620Z,5.78
2018-09-15T12:20:03.329Z,6.22
2018-09-15T12:22:30.812Z,5.22
2018-09-15T12:24:58.712Z,9.13
2018-09-15T12:27:26.477Z,8.15
2018-09-15T12:29:54.522Z,13.77
2018-09-15T12:32:22.629Z,6.53
2018-09-15T12:34:50.096Z,5.90
2018-09-15T12:37:18.016Z,5.37
2018-09-15T12:39:45.736Z,12.80
2018-09-15T12:42:13.480Z,12.10
2018-09-15T12:44:41.614Z,13.35
2018-09-15T12:47:09.450Z,10.08
2018-09-15T12:49:37.181Z,6.42
2018-09-15T12:52:05.196Z,5.03
2018-09-15T12:54:32.805Z,4.00
2018-09-15T12:57:00.987Z,7.92
2018-09-15T12:59:29.266Z,6.42
2018-09-15T13:01:57.488Z,4.78
2018-09-15T13:04:25.052Z,6.25
2018-09-15T13:06:53.108Z,3.20
2018-09-15T13:09:21.143Z,5.42
2018-09-15T13:11:49.240Z,5.97
2018-09-15T13:14:16.720Z,4.62
2018-09-15T13:16:44.922Z,4.40
2018-09-15T13:19:12.365Z,5.28
2018-09-15T13:21:40.364Z,6.97
2018-09-15T13:24:08.081Z,8.57
2018-09-15T13:26:35.656Z,6.10
2018-09-15T13:29:03.422Z,4.70
2018-09-15T13:31:31.209Z,5.00
2018-09-15T13:33:58.736Z,3.67
2018-09-15T13:36:26.242Z,3.60
2018-09-15T13:38:53.720Z,4.53
2018-09-15T13:41:21.442Z,10.00
2018-09-15T13:43:48.924Z,4.10
2018-09-15T13:46:16.693Z,4.60
2018-09-15T13:48:44.156Z,7.33
2018-09-15T13:51:12.020Z,3.12
2018-09-15T13:53:39.821Z,4.50
2018-09-15T13:56:07.309Z,8.60
2018-09-15T13:58:35.517Z,6.72
2018-09-15T14:01:03.491Z,4.10
2018-09-15T14:03:30.953Z,8.23
2018-09-15T14:05:58.708Z,3.50
2018-09-15T14:08:26.232Z,3.20
2018-09-15T14:10:53.704Z,6.33
2018-09-15T14:13:21.188Z,8.43
2018-09-15T14:15:49.052Z,7.90
2018-09-15T14:18:16.517Z,5.25
2018-09-15T14:20:44.277Z,4.62
2018-09-15T14:23:11.969Z,6.47
2018-09-15T14:25:39.466Z,8.33
2018-09-15T14:28:07.591Z,6.08
2018-09-15T14:30:35.642Z,5.62
2018-09-15T14:33:03.137Z,6.37
2018-09-15T14:35:31.175Z,5.70
2018-09-15T14:37:58.673Z,4.80
2018-09-15T14:40:26.385Z,6.60
2018-09-15T14:42:54.215Z,5.05
2018-09-15T14:45:21.749Z,5.30
2018-09-15T14:47:49.177Z,5.33
2018-09-15T14:50:16.967Z,4.40
2018-09-15T14:52:45.014Z,3.65
2018-09-15T14:55:12.795Z,3.90
2018-09-15T14:57:40.327Z,3.52
2018-09-15T15:00:08.359Z,5.15
2018-09-15T15:02:35.907Z,5.47
2018-09-15T15:05:03.452Z,5.95
2018-09-15T15:07:31.010Z,7.10
2018-09-15T15:09:58.852Z,8.50
2018-09-15T15:12:27.029Z,6.22
2018-09-15T15:14:55.211Z,5.37
2018-09-15T15:17:23.101Z,5.30
2018-09-15T15:19:50.597Z,5.05
2018-09-15T15:22:18.245Z,5.30
2018-09-15T15:24:46.844Z,8.55
2018-09-15T15:27:14.683Z,7.70
2018-09-15T15:29:42.265Z,5.35
2018-09-15T15:32:10.069Z,6.67
2018-09-15T15:34:37.898Z,5.72
2018-09-15T15:37:05.587Z,5.15
2018-09-15T15:39:33.365Z,6.40
2018-09-15T15:42:00.963Z,13.10
2018-09-15T15:44:28.789Z,8.70
2018-09-15T15:46:56.302Z,4.47
2018-09-15T15:49:23.801Z,7.33
2018-09-15T15:51:51.540Z,11.53
2018-09-15T15:54:20.152Z,5.73
2018-09-15T15:56:47.890Z,5.65
2018-09-15T15:59:16.415Z,6.67
2018-09-15T16:01:44.525Z,4.35
2018-09-15T16:04:12.112Z,2.95
2018-09-15T16:06:40.207Z,7.45
2018-09-15T16:09:08.172Z,6.90
2018-09-15T16:11:36.203Z,7.65
2018-09-15T16:14:04.324Z,4.90
2018-09-15T16:16:31.844Z,6.65
2018-09-15T16:18:59.755Z,6.85
2018-09-15T16:21:27.544Z,10.30
2018-09-15T16:23:55.103Z,5.60
2018-09-15T16:26:23.012Z,6.55
2018-09-15T16:28:50.519Z,7.62
2018-09-15T16:31:18.043Z,7.80
2018-09-15T16:33:46.440Z,7.72
2018-09-15T16:36:13.968Z,7.67
2018-09-15T16:38:41.769Z,7.58
2018-09-15T16:41:09.579Z,6.78
2018-09-15T16:43:37.420Z,7.80
2018-09-15T16:46:04.905Z,9.40
2018-09-15T16:48:32.420Z,5.97
2018-09-15T16:51:00.512Z,5.83
2018-09-15T16:53:28.004Z,8.40
2018-09-15T16:55:55.727Z,7.58
2018-09-15T16:58:23.313Z,6.77
2018-09-15T17:00:51.540Z,5.80
2018-09-15T17:03:19.102Z,5.97
2018-09-15T17:05:46.690Z,7.83
2018-09-15T17:08:14.412Z,5.30
2018-09-15T17:10:42.425Z,6.90
2018-09-15T17:13:10.487Z,4.37
2018-09-15T17:15:38.309Z,5.97
2018-09-15T17:18:06.945Z,6.72
2018-09-15T17:20:35.308Z,5.12
2018-09-15T17:23:02.860Z,4.70
2018-09-15T17:25:30.864Z,4.25
2018-09-15T17:27:58.276Z,5.97
2018-09-15T17:30:26.448Z,8.15
2018-09-15T17:32:54.095Z,6.10
2018-09-15T17:35:21.773Z,5.10
2018-09-15T17:37:49.420Z,5.05
2018-09-15T17:40:17.284Z,6.60
2018-09-15T17:42:45.295Z,6.30
2018-09-15T17:45:13.684Z,5.45
2018-09-15T17:47:41.748Z,11.53
2018-09-15T17:50:09.271Z,8.17
2018-09-15T17:52:36.802Z,6.10
2018-09-15T17:55:04.752Z,6.40
2018-09-15T17:57:33.079Z,6.28
2018-09-15T18:00:02.105Z,5.12
2018-09-15T18:02:29.828Z,5.28
2018-09-15T18:04:57.667Z,6.33
2018-09-15T18:07:25.816Z,7.07
2018-09-15T18:09:53.901Z,5.10
2018-09-15T18:12:21.472Z,4.60
2018-09-15T18:14:50.101Z,5.80
2018-09-15T18:17:18.223Z,5.80
2018-09-15T18:19:46.121Z,8.77
2018-09-15T18:22:13.978Z,5.60
2018-09-15T18:24:41.484Z,4.30
2018-09-15T18:27:08.948Z,6.22
2018-09-15T18:29:36.712Z,5.58
2018-09-15T18:32:04.888Z,10.05
2018-09-15T18:34:32.681Z,7.45
2018-09-15T18:37:00.922Z,8.70
2018-09-15T18:39:28.661Z,6.37
2018-09-15T18:41:56.465Z,10.98
2018-09-15T18:44:23.931Z,7.00
2018-09-15T18:46:51.418Z,7.40
2018-09-15T18:49:19.249Z,5.85
2018-09-15T18:51:47.013Z,6.65
2018-09-15T18:54:14.584Z,5.97
2018-09-15T18:56:42.361Z,9.73
2018-09-15T18:59:10.155Z,11.25
2018-09-15T19:01:37.969Z,8.55
2018-09-15T19:04:05.862Z,5.12
2018-09-15T19:06:33.912Z,8.15
2018-09-15T19:09:01.975Z,5.45
2018-09-15T19:11:29.745Z,6.67
2018-09-15T19:13:57.201Z,6.40
2018-09-15T19:16:24.684Z,5.25
2018-09-15T19:18:52.427Z,6.12
2018-09-15T19:21:19.991Z,4.92
2018-09-15T19:23:48.058Z,6.62
2018-09-15T19:26:15.536Z,4.42
2018-09-15T19:28:43.486Z,6.43
2018-09-15T19:31:10.943Z,6.40
2018-09-15T19:33:38.741Z,6.55
2018-09-15T19:36:06.704Z,6.35
2018-09-15T19:38:34.724Z,7.33
2018-09-15T19:41:02.416Z,8.30
2018-09-15T19:43:29.867Z,9.45
2018-09-15T19:45:57.375Z,6.42
2018-09-15T19:48:24.851Z,5.65
2018-09-15T19:50:52.356Z,6.47
2018-09-15T19:53:20.140Z,6.42
2018-09-15T19:55:47.633Z,6.05
2018-09-15T19:58:15.361Z,4.92
2018-09-15T20:00:43.092Z,6.92
2018-09-15T20:03:10.578Z,8.98
2018-09-15T20:05:38.016Z,5.75
2018-09-15T20:08:06.185Z,7.33
2018-09-15T20:10:33.604Z,6.50
2018-09-15T20:13:01.307Z,6.07
2018-09-15T20:15:29.264Z,7.70
2018-09-15T20:19:12.816Z,7.03
2018-09-15T20:21:39.627Z,4.75
2018-09-15T20:24:07.770Z,5.67
2018-09-15T20:26:35.427Z,4.40
2018-09-15T20:29:03.256Z,9.38
2018-09-15T20:31:31.033Z,9.40
2018-09-15T20:33:58.834Z,6.83
2018-09-15T20:36:26.665Z,8.20
2018-09-15T20:38:54.113Z,5.97
2018-09-15T20:41:21.881Z,5.60
2018-09-15T20:43:49.437Z,6.00
2018-09-15T20:46:17.197Z,8.73
2018-09-15T20:48:44.972Z,6.92
2018-09-15T20:51:12.784Z,6.03
2018-09-15T20:53:40.927Z,5.92
2018-09-15T20:56:08.708Z,5.67
2018-09-15T20:58:36.471Z,7.80
2018-09-15T21:01:04.205Z,5.00
2018-09-15T21:03:32.958Z,5.80
2018-09-15T21:06:00.892Z,5.08
2018-09-15T21:08:28.640Z,6.05
2018-09-15T21:10:56.416Z,10.50
2018-09-15T21:13:24.761Z,5.40
2018-09-15T21:15:52.424Z,7.20
2018-09-15T21:18:20.092Z,13.68
2018-09-15T21:20:48.509Z,11.03
2018-09-15T21:23:16.102Z,6.58
2018-09-15T21:25:43.616Z,8.98
2018-09-15T21:28:11.373Z,5.40
2018-09-15T21:30:38.907Z,5.78
2018-09-15T21:33:06.921Z,5.65
2018-09-15T21:35:34.860Z,6.42
2018-09-15T21:38:03.555Z,6.37
2018-09-15T21:40:31.661Z,9.48
2018-09-15T21:42:59.980Z,11.73
2018-09-15T21:45:27.772Z,4.75
2018-09-15T21:47:55.427Z,4.50
2018-09-15T21:50:24.136Z,4.28
2018-09-15T21:52:51.724Z,7.08
2018-09-15T21:55:19.228Z,3.98
2018-09-15T21:57:46.984Z,4.90
2018-09-15T22:00:14.653Z,9.40
2018-09-15T22:02:42.179Z,10.40
2018-09-15T22:05:09.648Z,8.28
2018-09-15T22:07:38.022Z,9.43
2018-09-15T22:10:05.530Z,7.42
2018-09-15T22:12:33.299Z,5.22
2018-09-15T22:15:01.035Z,6.20
2018-09-15T22:17:28.805Z,7.40
2018-09-15T22:19:56.339Z,10.50
2018-09-15T22:22:24.030Z,7.53
2018-09-15T22:24:51.687Z,30.32
2018-09-15T22:27:21.056Z,7.72
2018-09-15T22:29:49.121Z,12.07
2018-09-15T22:32:19.968Z,15.00
2018-09-15T22:34:49.349Z,5.95
2018-09-15T22:37:16.837Z,5.75
2018-09-15T22:39:44.263Z,8.00
2018-09-15T22:42:12.050Z,7.45
2018-09-15T22:44:39.483Z,5.25
2018-09-15T22:47:07.104Z,8.65
2018-09-15T22:49:34.752Z,8.63
2018-09-15T22:52:02.345Z,4.92
2018-09-15T22:54:29.879Z,11.73
2018-09-15T22:56:57.356Z,4.72
2018-09-15T22:59:24.903Z,5.13
2018-09-15T23:01:52.441Z,5.72
2018-09-15T23:04:20.103Z,5.33
2018-09-15T23:06:47.924Z,5.60
2018-09-15T23:09:15.572Z,6.55
2018-09-15T23:11:43.144Z,8.05
2018-09-15T23:14:10.895Z,12.55
2018-09-15T23:16:38.526Z,8.23
2018-09-15T23:19:06.090Z,6.33
2018-09-15T23:21:33.544Z,7.50
2018-09-15T23:24:01.285Z,8.45
2018-09-15T23:26:28.794Z,5.70
2018-09-15T23:28:56.648Z,8.73
2018-09-15T23:31:24.500Z,14.70
2018-09-15T23:33:51.985Z,7.83
2018-09-15T23:36:19.501Z,6.03
2018-09-15T23:38:47.240Z,7.25
2018-09-15T23:41:14.787Z,7.75
2018-09-15T23:43:42.259Z,12.23
2018-09-15T23:46:10.414Z,8.15
2018-09-15T23:48:38.028Z,7.70
2018-09-15T23:51:05.635Z,10.80
2018-09-15T23:53:33.079Z,9.08
2018-09-15T23:56:00.628Z,12.80
2018-09-15T23:58:28.267Z,9.05
